Time;durP1;ratioP1;P1;durP2;ratioP2;P2;SDS_P1;SDS_P2;PMS_P1;PMS_P2;Temp;Humidity;BMP_temperature;BMP_pressure;BME280_temperature;BME280_humidity;BME280_pressure;Samples;Min_cycle;Max_cycle;Signal;HPM_P1;HPM_P2
2022/05/12 00:02:07;;;;;;;9.13;7.05;;;;;;;14.86;84.12;98829.88;4485536;31;20100;-71
2022/05/12 00:04:36;;;;;;;9.90;6.15;;;;;;;14.81;84.21;98835.63;4485748;31;20139;-71
2022/05/12 00:07:04;;;;;;;9.65;6.47;;;;;;;14.78;84.01;98824.59;4485446;31;20438;-71
2022/05/12 00:09:31;;;;;;;7.18;5.65;;;;;;;14.73;84.25;98836.44;4485414;31;20107;-71
2022/05/12 00:11:59;;;;;;;9.75;6.75;;;;;;;14.75;84.38;98832.81;4484497;32;20100;-71
2022/05/12 00:14:26;;;;;;;9.20;6.45;;;;;;;14.79;83.88;98827.06;4485519;32;20575;-71
2022/05/12 00:16:56;;;;;;;9.52;6.28;;;;;;;14.85;83.72;98817.66;4484288;32;20096;-71
2022/05/12 00:19:26;;;;;;;10.35;5.30;;;;;;;15.18;81.14;98826.41;4485199;32;20115;-71
2022/05/12 00:21:54;;;;;;;8.77;5.85;;;;;;;15.31;79.86;98820.66;4485078;31;20119;-72
2022/05/12 00:24:21;;;;;;;8.10;5.55;;;;;;;15.25;80.27;98824.75;4485591;31;20180;-71
2022/05/12 00:26:48;;;;;;;7.70;5.90;;;;;;;15.22;80.50;98819.81;4485173;31;20451;-71
2022/05/12 00:29:15;;;;;;;7.15;5.30;;;;;;;15.42;79.77;98815.00;4485685;31;20472;-71
2022/05/12 00:31:44;;;;;;;7.30;5.90;;;;;;;15.36;79.69;98820.16;4485212;31;20096;-71
2022/05/12 00:34:13;;;;;;;8.68;5.53;;;;;;;15.25;79.99;98818.66;4485520;32;20483;-71
2022/05/12 00:36:40;;;;;;;10.18;5.47;;;;;;;15.23;80.19;98818.00;4485655;31;20088;-71
2022/05/12 00:39:07;;;;;;;11.55;5.55;;;;;;;15.45;78.86;98821.78;4485219;32;20460;-71
2022/05/12 00:41:35;;;;;;;10.85;5.53;;;;;;;15.48;79.28;98818.00;4485463;31;20164;-71
2022/05/12 00:44:05;;;;;;;11.27;5.30;;;;;;;15.66;78.19;98821.25;4485559;31;20119;-71
2022/05/12 00:46:35;;;;;;;8.13;5.70;;;;;;;15.72;78.21;98810.00;4485250;31;20093;-71
2022/05/12 00:49:09;;;;;;;7.90;5.60;;;;;;;15.75;77.50;98814.13;4485312;31;20452;-71
2022/05/12 00:51:37;;;;;;;;;;;;;;;15.71;77.56;98813.63;4485487;32;20155;-71
2022/05/12 00:54:10;;;;;;;9.02;6.28;;;;;;;15.57;78.17;98822.25;4484348;32;20047;-71
2022/05/12 00:56:38;;;;;;;11.98;5.55;;;;;;;15.67;76.92;98820.28;4485315;31;20111;-71
2022/05/12 00:59:10;;;;;;;13.73;5.47;;;;;;;15.82;75.98;98817.78;4484190;32;20100;-71
2022/05/12 01:01:38;;;;;;;8.23;5.32;;;;;;;15.78;76.20;98816.47;4485192;31;20521;-71
2022/05/12 01:04:06;;;;;;;6.62;4.97;;;;;;;15.77;76.53;98814.78;4485350;31;20358;-71
2022/05/12 01:06:34;;;;;;;10.68;5.65;;;;;;;15.77;76.17;98817.41;4485191;31;20386;-71
2022/05/12 01:09:02;;;;;;;8.38;4.90;;;;;;;15.76;76.11;98813.97;4485024;31;20557;-71
2022/05/12 01:11:29;;;;;;;7.45;5.70;;;;;;;15.70;76.28;98811.16;4471131;32;20446;-71
2022/05/12 01:14:01;;;;;;;6.62;4.90;;;;;;;15.65;76.50;98811.66;4484914;31;20110;-71
2022/05/12 01:16:36;;;;;;;6.20;5.05;;;;;;;15.64;76.76;98817.97;4485289;31;20197;-71
2022/05/12 01:19:05;;;;;;;10.75;5.20;;;;;;;15.69;76.64;98809.53;4485036;31;20106;-71
2022/05/12 01:21:33;;;;;;;8.45;5.45;;;;;;;15.68;76.26;98807.88;4484778;32;20120;-71
2022/05/12 01:24:00;;;;;;;7.50;5.80;;;;;;;15.66;76.81;98815.16;4485055;31;20118;-71
2022/05/12 01:26:28;;;;;;;8.45;5.68;;;;;;;15.67;76.44;98811.50;4485015;32;20119;-71
2022/05/12 01:28:55;;;;;;;9.15;5.62;;;;;;;15.50;77.41;98822.09;4484935;32;20100;-71
2022/05/12 01:31:23;;;;;;;7.28;5.25;;;;;;;15.52;77.13;98825.41;4483027;32;20438;-71
2022/05/12 01:33:51;;;;;;;7.68;5.28;;;;;;;15.49;77.38;98812.53;4484406;31;20123;-71
2022/05/12 01:36:19;;;;;;;9.05;5.30;;;;;;;15.47;77.57;98816.34;4484916;31;20183;-71
2022/05/12 01:38:47;;;;;;;9.55;6.03;;;;;;;15.32;77.95;98813.53;4484944;31;20084;-71
2022/05/12 01:41:15;;;;;;;8.52;5.87;;;;;;;15.22;78.60;98816.38;4484912;31;20545;-71
2022/05/12 01:43:42;;;;;;;6.72;5.40;;;;;;;15.43;77.66;98813.22;4485091;31;20103;-71
2022/05/12 01:46:10;;;;;;;8.68;5.80;;;;;;;15.44;77.43;98814.84;4484639;31;20484;-71
2022/05/12 01:48:37;;;;;;;7.28;5.70;;;;;;;15.46;77.31;98817.31;4484673;31;20104;-71
2022/05/12 01:51:06;;;;;;;8.43;5.78;;;;;;;15.24;78.27;98815.19;4484507;31;20119;-71
2022/05/12 01:53:33;;;;;;;9.10;5.60;;;;;;;15.14;79.08;98816.34;4484842;31;20118;-71
2022/05/12 01:56:01;;;;;;;8.82;5.50;;;;;;;15.04;79.71;98819.16;4484713;31;20492;-71
2022/05/12 01:58:29;;;;;;;7.93;5.53;;;;;;;15.15;78.98;98812.72;4484672;31;20101;-71
2022/05/12 02:00:56;;;;;;;8.05;6.15;;;;;;;15.20;78.36;98811.25;4484591;31;20127;-71
2022/05/12 02:03:23;;;;;;;7.55;6.03;;;;;;;15.01;79.25;98807.13;4484709;32;20096;-71
2022/05/12 02:05:50;;;;;;;9.38;6.10;;;;;;;14.89;79.83;98805.81;4484713;32;20174;-71
2022/05/12 02:08:18;;;;;;;7.97;5.72;;;;;;;14.83;80.05;98802.00;4484541;31;20113;-71
2022/05/12 02:10:48;;;;;;;7.30;5.70;;;;;;;14.71;80.52;98790.13;4484653;31;20122;-71
2022/05/12 02:13:18;;;;;;;9.73;5.85;;;;;;;14.68;80.70;98790.44;4484494;32;20658;-71
2022/05/12 02:15:46;;;;;;;10.00;5.82;;;;;;;14.62;81.23;98791.09;4484409;31;20153;-71
2022/05/12 02:18:14;;;;;;;8.38;5.43;;;;;;;14.55;81.53;98789.09;4484691;31;20092;-71
2022/05/12 02:20:41;;;;;;;8.85;5.68;;;;;;;14.51;81.59;98795.66;4484177;31;20159;-71
2022/05/12 02:23:08;;;;;;;7.40;5.47;;;;;;;14.57;80.98;98791.56;4484565;31;20092;-71
2022/05/12 02:25:35;;;;;;;6.22;5.32;;;;;;;14.72;80.50;98789.16;4484535;31;20092;-71
2022/05/12 02:28:03;;;;;;;8.95;5.70;;;;;;;14.69;80.18;98786.84;4484208;32;20104;-71
2022/05/12 02:30:31;;;;;;;9.30;5.37;;;;;;;14.59;80.53;98781.66;4484114;31;20391;-71
2022/05/12 02:32:58;;;;;;;9.95;4.97;;;;;;;14.55;81.06;98793.53;4484218;31;20104;-71
2022/05/12 02:35:26;;;;;;;7.03;5.18;;;;;;;14.64;80.10;98789.97;4484097;32;20092;-71
2022/05/12 02:37:54;;;;;;;7.87;5.75;;;;;;;14.72;80.15;98791.78;4484222;32;20089;-71
2022/05/12 02:40:22;;;;;;;9.18;5.32;;;;;;;14.64;80.18;98789.97;4484169;31;20100;-71
2022/05/12 02:42:50;;;;;;;9.70;5.37;;;;;;;14.53;80.58;98787.59;4484020;31;20122;-71
2022/05/12 02:45:17;;;;;;;7.18;5.43;;;;;;;14.53;80.46;98792.88;4486169;32;20085;-71
2022/05/12 02:47:44;;;;;;;7.12;5.15;;;;;;;14.55;80.28;98790.91;4486163;31;20093;-71
2022/05/12 02:50:13;;;;;;;7.82;5.35;;;;;;;14.40;80.72;98785.44;4486135;31;20168;-71
2022/05/12 02:52:41;;;;;;;8.15;5.18;;;;;;;14.28;81.41;98784.91;4486318;32;20118;-71
2022/05/12 02:55:08;;;;;;;9.05;5.68;;;;;;;14.20;81.78;98792.78;4486065;31;20490;-71
2022/05/12 02:57:36;;;;;;;7.93;5.37;;;;;;;14.13;82.16;98797.88;4486061;31;20148;-71
2022/05/12 03:00:06;;;;;;;8.25;6.00;;;;;;;14.09;82.29;98795.72;4486098;31;20161;-71
2022/05/12 03:02:33;;;;;;;7.95;5.25;;;;;;;14.03;82.68;98797.16;4486133;31;20088;-71
2022/05/12 03:05:01;;;;;;;11.18;5.40;;;;;;;14.01;82.86;98807.84;4486079;31;20111;-71
2022/05/12 03:07:28;;;;;;;6.85;5.20;;;;;;;13.98;82.76;98800.28;4485859;31;20139;-71
2022/05/12 03:09:55;;;;;;;6.32;4.90;;;;;;;13.94;83.12;98808.66;4485891;31;20160;-71
2022/05/12 03:12:22;;;;;;;8.10;5.12;;;;;;;13.87;83.83;98810.25;4485883;31;20096;-71
2022/05/12 03:14:49;;;;;;;9.90;5.95;;;;;;;13.84;84.18;98814.84;4485904;32;20163;-71
2022/05/12 03:17:17;;;;;;;7.65;5.90;;;;;;;13.77;84.31;98811.19;4485958;31;20101;-71
2022/05/12 03:19:44;;;;;;;7.25;5.53;;;;;;;13.73;85.10;98814.28;4485563;31;20116;-71
2022/05/12 03:22:12;;;;;;;8.80;6.20;;;;;;;13.66;85.32;98817.56;4485925;32;20116;-71
2022/05/12 03:24:39;;;;;;;10.00;6.20;;;;;;;13.69;85.43;98812.94;4485863;32;20097;-71
2022/05/12 03:27:06;;;;;;;6.93;5.55;;;;;;;13.69;85.43;98810.31;4485612;31;20115;-71
2022/05/12 03:29:33;;;;;;;7.78;5.97;;;;;;;13.72;85.16;98810.84;4486161;31;20093;-71
2022/05/12 03:32:01;;;;;;;9.65;6.12;;;;;;;13.84;84.54;98814.03;4485812;31;20103;-71
2022/05/12 03:34:28;;;;;;;12.15;5.90;;;;;;;13.90;84.07;98813.41;4485787;31;20147;-71
2022/05/12 03:36:56;;;;;;;8.00;5.57;;;;;;;13.97;83.58;98810.97;4485871;31;20103;-71
2022/05/12 03:39:24;;;;;;;8.00;4.95;;;;;;;14.01;83.51;98812.31;4484523;32;20139;-71
2022/05/12 03:41:52;;;;;;;11.30;5.87;;;;;;;14.09;82.65;98816.78;4485784;31;20088;-71
2022/05/12 03:47:05;;;;;;;9.07;5.20;;;;;;;14.12;82.89;98809.38;4485654;32;20156;-71
2022/05/12 03:49:32;;;;;;;7.60;5.65;;;;;;;14.18;82.71;98821.09;4485583;31;20438;-71
2022/05/12 03:51:59;;;;;;;7.20;5.10;;;;;;;14.23;82.55;98813.56;4484390;32;20123;-71
2022/05/12 03:54:27;;;;;;;7.15;5.47;;;;;;;14.30;82.14;98811.91;4485495;31;20092;-71
2022/05/12 03:56:54;;;;;;;10.07;5.65;;;;;;;14.48;81.50;98811.81;4485469;31;20097;-71
2022/05/12 03:59:21;;;;;;;8.70;5.28;;;;;;;14.48;81.52;98816.25;4485736;31;20104;-71
2022/05/12 04:01:48;;;;;;;7.75;5.32;;;;;;;14.52;81.07;98812.31;4485445;31;20088;-71
2022/05/12 04:04:16;;;;;;;6.47;4.95;;;;;;;14.84;78.43;98816.03;4483876;32;20433;-71
2022/05/12 04:06:43;;;;;;;9.73;6.12;;;;;;;14.98;77.70;98825.91;4485740;31;20089;-73
2022/05/12 04:09:11;;;;;;;8.25;4.60;;;;;;;15.26;77.30;98820.31;4485455;31;20097;-73
2022/05/12 04:11:38;;;;;;;7.03;5.10;;;;;;;15.31;76.95;98820.66;4485394;31;20127;-73
2022/05/12 04:14:05;;;;;;;5.85;4.60;;;;;;;15.59;76.73;98828.19;4485333;31;20092;-73
2022/05/12 04:16:32;;;;;;;6.93;4.70;;;;;;;15.81;75.10;98815.31;4485337;31;20124;-73
2022/05/12 04:19:00;;;;;;;7.15;5.15;;;;;;;15.89;75.16;98824.03;4485314;31;20100;-73
2022/05/12 04:21:27;;;;;;;7.10;4.80;;;;;;;16.11;74.72;98830.41;4484867;31;20083;-73
2022/05/12 04:23:54;;;;;;;10.15;4.85;;;;;;;16.25;73.38;98825.38;4485261;32;20096;-73
2022/05/12 04:26:22;;;;;;;7.03;5.05;;;;;;;16.36;73.32;98832.91;4485442;32;20623;-73
2022/05/12 04:28:49;;;;;;;6.80;4.75;;;;;;;16.46;72.15;98830.09;4485282;32;20126;-73
2022/05/12 04:31:16;;;;;;;7.10;5.40;;;;;;;16.72;71.17;98831.59;4476130;32;20173;-73
2022/05/12 04:36:29;;;;;;;5.93;4.80;;;;;;;17.02;70.69;98848.44;4469910;32;20110;-73
2022/05/12 04:38:59;;;;;;;5.82;4.72;;;;;;;17.20;70.35;98848.16;4469645;32;20136;-73
2022/05/12 04:41:26;;;;;;;5.53;4.60;;;;;;;17.25;70.58;98842.31;4469455;32;20092;-73
2022/05/12 04:43:54;;;;;;;5.97;4.75;;;;;;;17.37;67.97;98852.28;4469876;32;20085;-73
2022/05/12 04:46:22;;;;;;;6.53;4.45;;;;;;;17.49;68.63;98854.53;4469501;32;20450;-73
2022/05/12 04:48:49;;;;;;;10.02;6.57;;;;;;;17.54;67.83;98858.25;4469298;32;20432;-74
2022/05/12 04:51:16;;;;;;;8.68;5.70;;;;;;;17.61;68.54;98854.88;4468438;32;20096;-74
2022/05/12 04:53:44;;;;;;;10.50;4.80;;;;;;;17.72;67.62;98854.47;4467693;32;20154;-73
2022/05/12 04:56:12;;;;;;;6.40;4.75;;;;;;;17.81;67.92;98857.84;4469657;32;20112;-73
2022/05/12 04:58:39;;;;;;;7.93;5.28;;;;;;;17.93;66.99;98860.91;4469291;32;20124;-77
2022/05/12 05:01:07;;;;;;;8.43;5.37;;;;;;;18.04;66.83;98853.31;4470641;32;20099;-73
2022/05/12 05:03:34;;;;;;;7.55;5.32;;;;;;;18.07;65.43;98857.44;4482512;31;20157;-74
2022/05/12 05:06:01;;;;;;;8.90;6.28;;;;;;;18.11;66.14;98861.38;4478786;32;20143;-74
2022/05/12 05:08:29;;;;;;;11.70;6.15;;;;;;;18.00;66.67;98859.16;4479668;31;20517;-74
2022/05/12 05:10:56;;;;;;;6.40;5.25;;;;;;;18.05;66.41;98856.78;4474820;31;20220;-74
2022/05/12 05:13:23;;;;;;;7.45;4.82;;;;;;;18.14;67.10;98852.19;4481983;32;20104;-74
2022/05/12 05:15:51;;;;;;;11.73;5.50;;;;;;;18.21;66.05;98858.41;4477007;32;20092;-74
2022/05/12 05:18:19;;;;;;;8.82;5.90;;;;;;;18.27;66.71;98862.97;4482184;32;20457;-74
2022/05/12 05:20:46;;;;;;;8.50;5.50;;;;;;;18.37;67.02;98862.72;4473327;31;20088;-73
2022/05/12 05:23:21;;;;;;;8.13;5.37;;;;;;;18.39;68.34;98866.81;4477988;32;20134;-73
2022/05/12 05:25:49;;;;;;;6.53;5.25;;;;;;;18.50;69.87;98867.34;4483047;32;20144;-74
2022/05/12 05:28:17;;;;;;;10.65;5.25;;;;;;;18.68;65.94;98869.59;4482535;31;20477;-73
2022/05/12 05:30:45;;;;;;;18.02;5.93;;;;;;;18.77;65.38;98868.47;4482905;31;20127;-73
2022/05/12 05:33:12;;;;;;;5.60;4.80;;;;;;;18.93;66.38;98876.22;4479791;32;20105;-73
2022/05/12 05:35:40;;;;;;;9.27;5.60;;;;;;;18.91;64.99;98872.94;4476083;32;20146;-73
2022/05/12 05:38:07;;;;;;;16.42;5.22;;;;;;;18.91;64.16;98875.59;4488782;31;20115;-74
2022/05/12 05:40:34;;;;;;;8.57;5.55;;;;;;;19.09;66.71;98882.31;4483789;31;20088;-74
2022/05/12 05:43:02;;;;;;;6.43;5.28;;;;;;;19.06;63.64;98869.41;4478004;31;20234;-73
2022/05/12 05:45:30;;;;;;;7.40;4.65;;;;;;;19.14;64.01;98879.91;4484035;31;20104;-72
2022/05/12 05:48:00;;;;;;;14.68;6.00;;;;;;;19.21;62.50;98880.78;4481374;31;20154;-73
2022/05/12 05:53:23;;;;;;;9.00;6.18;;;;;;;19.27;63.22;98872.06;4482181;31;20093;-72
2022/05/12 05:53:25;;;;;;;7.80;5.75;;;;;;;19.30;67.40;98870.84;4480560;32;20084;-72
2022/05/12 05:55:54;;;;;;;10.32;5.55;;;;;;;19.50;64.08;98885.12;4478698;31;20088;-73
2022/05/12 05:58:22;;;;;;;8.05;6.12;;;;;;;19.56;64.18;98878.25;4483147;31;20166;-72
2022/05/12 06:00:50;;;;;;;8.23;5.80;;;;;;;19.43;66.40;98886.91;4480211;31;20092;-72
2022/05/12 06:03:17;;;;;;;10.25;5.82;;;;;;;19.58;66.31;98886.03;4479181;32;20096;-72
2022/05/12 06:05:45;;;;;;;8.73;6.10;;;;;;;19.63;66.15;98892.38;4478011;32;20119;-72
2022/05/12 06:08:14;;;;;;;9.13;6.78;;;;;;;19.88;65.24;98885.84;4479628;31;20128;-72
2022/05/12 06:10:43;;;;;;;10.68;6.50;;;;;;;19.91;64.02;98890.75;4472302;31;20131;-71
2022/05/12 06:13:12;;;;;;;12.80;6.68;;;;;;;19.77;66.14;98888.03;4477793;31;20567;-74
2022/05/12 06:15:40;;;;;;;9.40;7.30;;;;;;;19.78;68.29;98881.69;4481867;31;20569;-73
2022/05/12 06:18:09;;;;;;;12.45;6.85;;;;;;;20.05;66.28;98889.03;4482058;32;20436;-75
2022/05/12 06:20:40;;;;;;;13.32;7.03;;;;;;;20.19;65.76;98882.75;4483026;31;20114;-74
2022/05/12 06:23:08;;;;;;;13.40;7.22;;;;;;;20.21;65.51;98888.69;4483063;31;20116;-73
2022/05/12 06:25:36;;;;;;;10.55;7.40;;;;;;;20.41;63.14;98885.31;4482776;32;20134;-73
2022/05/12 06:28:03;;;;;;;13.85;7.05;;;;;;;20.30;65.24;98889.34;4470325;32;20132;-73
2022/05/12 06:30:31;;;;;;;10.95;7.95;;;;;;;20.51;64.83;98885.75;4478939;31;20112;-74
2022/05/12 06:32:58;;;;;;;11.63;7.65;;;;;;;20.51;64.75;98889.25;4480791;31;20080;-73
2022/05/12 06:35:26;;;;;;;12.13;7.62;;;;;;;20.51;64.46;98891.09;4481164;32;20096;-74
2022/05/12 06:37:53;;;;;;;9.38;7.55;;;;;;;20.54;66.02;98886.19;4483163;31;20100;-72
2022/05/12 06:40:21;;;;;;;11.85;8.20;;;;;;;20.47;64.51;98885.34;4483698;31;20107;-72
2022/05/12 06:42:50;;;;;;;13.02;7.43;;;;;;;20.69;65.22;98888.72;4483965;31;20131;-73
2022/05/12 06:45:20;;;;;;;12.82;7.28;;;;;;;20.63;63.16;98891.34;4476733;32;20109;-74
2022/05/12 06:47:50;;;;;;;13.70;7.72;;;;;;;20.71;61.77;98905.34;4480919;32;20104;-72
2022/05/12 06:50:21;;;;;;;14.00;6.40;;;;;;;20.78;62.38;98901.88;4476710;31;20191;-73
2022/05/12 06:52:49;;;;;;;12.90;6.87;;;;;;;20.86;64.22;98909.66;4467585;32;20097;-73
2022/05/12 06:55:17;;;;;;;11.82;6.78;;;;;;;21.06;60.84;98905.22;4479446;32;20108;-73
2022/05/12 06:57:45;;;;;;;9.30;6.53;;;;;;;21.06;58.81;98899.91;4483165;31;20155;-72
2022/05/12 07:00:16;;;;;;;12.13;6.68;;;;;;;21.04;60.79;98909.91;4478455;31;20104;-72
2022/05/12 07:02:45;;;;;;;9.02;6.53;;;;;;;21.12;59.28;98902.75;4478499;32;20093;-72
2022/05/12 07:05:19;;;;;;;12.55;6.00;;;;;;;20.99;57.73;98904.37;4468124;32;20104;-73
2022/05/12 07:07:47;;;;;;;13.60;6.57;;;;;;;21.09;57.36;98896.03;4471517;32;20142;-73
2022/05/12 07:10:15;;;;;;;11.80;6.55;;;;;;;21.29;61.38;98893.38;4480960;31;20410;-72
2022/05/12 07:12:43;;;;;;;15.48;8.65;;;;;;;21.42;62.83;98898.72;4477424;32;20108;-73
2022/05/12 07:15:11;;;;;;;11.27;6.57;;;;;;;21.11;63.06;98890.50;4480191;31;20119;-73
2022/05/12 07:17:39;;;;;;;8.30;6.18;;;;;;;21.40;62.90;98891.94;4480648;31;20100;-72
2022/05/12 07:28:26;;;;;;;9.02;6.45;;;;;;;22.04;63.20;98906.47;4478030;32;20160;-73
2022/05/12 07:31:03;;;;;;;13.05;6.25;;;;;;;22.11;58.45;98899.28;4480296;31;20104;-73
2022/05/12 07:33:41;;;;;;;7.97;5.70;;;;;;;22.16;60.12;98901.34;4480618;32;20108;-73
2022/05/12 07:36:14;;;;;;;14.95;6.57;;;;;;;22.47;59.00;98899.84;4481618;31;20092;-73
2022/05/12 07:38:42;;;;;;;12.45;6.80;;;;;;;22.65;56.82;98899.12;4482521;31;20124;-73
2022/05/12 07:41:12;;;;;;;11.57;6.40;;;;;;;22.53;60.53;98896.31;4486897;31;20153;-72
2022/05/12 07:43:41;;;;;;;11.75;5.90;;;;;;;22.50;56.66;98894.91;4481634;31;20130;-72
2022/05/12 07:46:09;;;;;;;11.30;6.30;;;;;;;22.63;56.20;98891.34;4476186;32;20454;-73
2022/05/12 07:48:38;;;;;;;8.77;6.00;;;;;;;22.79;57.33;98892.72;4485503;31;20096;-73
2022/05/12 07:51:06;;;;;;;10.45;6.20;;;;;;;23.01;58.20;98890.53;4481622;31;20127;-73
2022/05/12 07:53:34;;;;;;;45.20;9.02;;;;;;;22.82;60.23;98889.59;4478177;32;20096;-73
2022/05/12 07:56:01;;;;;;;18.85;6.55;;;;;;;22.91;60.31;98889.34;4483591;31;20475;-73
2022/05/12 07:58:28;;;;;;;9.70;5.82;;;;;;;23.13;56.51;98896.03;4483810;31;20084;-73
2022/05/12 08:00:57;;;;;;;21.23;6.05;;;;;;;23.22;54.91;98896.59;4479106;31;20221;-73
2022/05/12 08:03:25;;;;;;;16.67;6.35;;;;;;;23.32;55.73;98893.44;4477596;32;20122;-73
2022/05/12 08:05:53;;;;;;;10.65;5.53;;;;;;;23.44;57.75;98898.88;4475604;31;20104;-71
2022/05/12 08:08:20;;;;;;;48.15;7.55;;;;;;;23.38;55.16;98900.59;4479641;32;20127;-72
2022/05/12 08:10:48;;;;;;;29.27;6.18;;;;;;;23.56;58.29;98907.88;4484219;31;20108;-73
2022/05/12 08:13:16;;;;;;;17.62;6.28;;;;;;;23.69;58.48;98904.25;4483053;31;20100;-73
2022/05/12 08:15:46;;;;;;;185.60;16.83;;;;;;;23.77;55.07;98903.97;4484269;32;20532;-73
2022/05/12 08:18:16;;;;;;;184.20;15.55;;;;;;;23.72;57.48;98906.47;4483635;32;20092;-73
2022/05/12 08:20:46;;;;;;;10.13;6.20;;;;;;;23.99;55.68;98907.09;4478665;32;20092;-73
2022/05/12 08:23:14;;;;;;;42.83;8.32;;;;;;;23.91;54.22;98905.50;4482105;31;20104;-73
2022/05/12 08:25:43;;;;;;;26.77;7.03;;;;;;;24.04;57.16;98909.09;4476979;32;20504;-73
2022/05/12 08:28:13;;;;;;;21.40;6.97;;;;;;;24.16;56.89;98901.97;4481926;31;20120;-73
2022/05/12 08:30:45;;;;;;;9.75;5.95;;;;;;;24.32;52.78;98900.56;4481890;31;20121;-73
2022/05/12 08:33:12;;;;;;;11.27;5.50;;;;;;;24.48;52.69;98912.50;4481370;31;20127;-73
2022/05/12 08:35:40;;;;;;;10.07;5.35;;;;;;;24.47;49.78;98902.87;4472593;31;20139;-73
2022/05/12 08:38:08;;;;;;;11.02;6.05;;;;;;;24.51;52.20;98904.06;4483204;31;20115;-73
2022/05/12 08:41:02;;;;;;;15.48;6.62;;;;;;;24.69;48.93;98910.47;4482378;31;20137;-73
2022/05/12 08:43:48;;;;;;;13.10;5.78;;;;;;;24.62;49.52;98910.56;4484473;31;20481;-73
2022/05/12 08:46:33;;;;;;;21.98;6.50;;;;;;;24.53;51.94;98914.56;4479791;31;20135;-73
2022/05/12 08:49:19;;;;;;;45.03;7.60;;;;;;;24.70;55.04;98912.91;4473056;32;20119;-73
2022/05/12 08:51:54;;;;;;;22.90;6.15;;;;;;;24.76;53.62;98913.88;4471691;32;20822;-73
2022/05/12 08:54:24;;;;;;;24.95;6.10;;;;;;;24.76;52.87;98914.69;4479015;32;20394;-73
2022/05/12 08:56:58;;;;;;;16.60;5.80;;;;;;;24.84;50.69;98924.25;4473515;32;20100;-73
2022/05/12 08:59:26;;;;;;;14.50;5.60;;;;;;;24.74;50.55;98914.09;4474306;32;20470;-73
2022/05/12 09:02:24;;;;;;;15.07;6.07;;;;;;;24.85;49.79;98925.91;4480488;32;20088;-73
2022/05/12 09:04:52;;;;;;;14.90;5.75;;;;;;;24.93;52.41;98925.59;4469178;32;20111;-73
2022/05/12 09:07:34;;;;;;;15.98;5.60;;;;;;;25.18;53.17;98918.44;4482694;31;20496;-74
2022/05/12 09:10:17;;;;;;;17.93;6.03;;;;;;;25.19;48.76;98917.41;4460473;32;20428;-74
2022/05/12 09:13:02;;;;;;;16.25;5.32;;;;;;;25.23;49.74;98915.91;4476629;32;20165;-74
2022/05/12 09:15:33;;;;;;;10.25;5.75;;;;;;;25.38;48.29;98918.19;4475226;31;20172;-73
2022/05/12 09:18:13;;;;;;;8.90;5.55;;;;;;;25.21;48.77;98918.81;4482456;31;20110;-74
2022/05/12 09:20:41;;;;;;;22.35;5.80;;;;;;;25.30;52.70;98928.19;4468757;32;20190;-73
2022/05/12 09:23:08;;;;;;;12.00;5.60;;;;;;;25.44;53.84;98928.81;4471398;32;20160;-74
2022/05/12 09:25:39;;;;;;;12.70;5.47;;;;;;;25.65;50.15;98924.75;4469263;32;20093;-76
2022/05/12 09:28:34;;;;;;;13.88;5.97;;;;;;;25.56;49.66;98920.78;4471491;32;20135;-74
2022/05/12 09:31:15;;;;;;;17.60;5.15;;;;;;;25.74;50.66;98932.44;4474308;32;20104;-75
2022/05/12 09:33:45;;;;;;;13.77;5.37;;;;;;;26.14;50.40;98921.88;4474734;31;20471;-74
2022/05/12 09:36:28;;;;;;;17.65;6.35;;;;;;;26.22;50.34;98928.75;4474438;32;20619;-74
2022/05/12 09:38:57;;;;;;;9.05;5.28;;;;;;;26.39;50.79;98926.97;4482751;32;20131;-73
2022/05/12 09:41:39;;;;;;;13.85;6.22;;;;;;;26.54;49.93;98920.25;4473369;32;20161;-74
2022/05/12 09:44:22;;;;;;;10.25;5.40;;;;;;;26.46;47.83;98929.50;4469716;31;20160;-74
2022/05/12 09:47:01;;;;;;;10.65;4.82;;;;;;;26.51;50.29;98926.94;4474948;31;20092;-74
2022/05/12 09:49:35;;;;;;;7.65;4.78;;;;;;;26.68;50.83;98923.56;4491023;31;20115;-73
2022/05/12 09:52:31;;;;;;;9.18;5.87;;;;;;;26.86;46.21;98919.84;4476500;31;20232;-73
2022/05/12 09:55:32;;;;;;;10.23;5.20;;;;;;;26.87;50.35;98918.78;4479336;32;20124;-72
2022/05/12 09:58:05;;;;;;;10.68;5.40;;;;;;;26.98;47.83;98923.31;4421082;32;20113;-75
2022/05/12 10:01:03;;;;;;;8.45;5.53;;;;;;;27.06;47.41;98912.16;4432231;32;20155;-76
2022/05/12 10:09:16;;;;;;;18.15;5.40;;;;;;;27.26;48.23;98906.31;4427035;32;20117;-74
2022/05/12 10:12:13;;;;;;;8.98;4.95;;;;;;;27.36;43.79;98908.41;4434472;32;20113;-74
2022/05/12 10:14:41;;;;;;;6.65;4.43;;;;;;;27.33;42.02;98898.13;4432002;32;20521;-75
2022/05/12 10:17:15;;;;;;;7.40;4.60;;;;;;;27.33;45.54;98898.13;4423333;32;20125;-74
2022/05/12 10:19:44;;;;;;;6.55;4.82;;;;;;;27.54;49.58;98893.06;4429219;32;20161;-74
2022/05/12 10:22:30;;;;;;;11.25;5.47;;;;;;;27.70;45.21;98892.25;4430801;32;20542;-74
2022/05/12 10:25:22;;;;;;;11.07;4.50;;;;;;;27.79;48.14;98890.75;4413635;32;20156;-74
2022/05/12 10:28:17;;;;;;;11.40;5.60;;;;;;;27.71;46.64;98882.31;4426032;32;20853;-74
2022/05/12 10:31:04;;;;;;;10.88;4.93;;;;;;;27.90;44.77;98882.84;4431493;32;20549;-74
2022/05/12 10:33:40;;;;;;;9.98;5.43;;;;;;;27.72;44.08;98892.00;4441118;32;20114;-72
2022/05/12 10:36:34;;;;;;;11.32;4.82;;;;;;;27.74;42.79;98882.63;4482569;32;20135;-73
2022/05/12 10:39:20;;;;;;;12.57;4.87;;;;;;;27.71;46.94;98879.63;4480688;31;20103;-73
2022/05/12 10:42:10;;;;;;;8.52;4.75;;;;;;;27.77;42.68;98874.06;4466208;32;20157;-74
2022/05/12 10:44:45;;;;;;;9.77;5.00;;;;;;;27.99;42.29;98884.06;4480130;31;20491;-72
2022/05/12 10:47:16;;;;;;;9.43;4.78;;;;;;;28.11;44.75;98887.47;4472069;32;20094;-75
2022/05/12 10:50:16;;;;;;;11.45;4.85;;;;;;;28.20;43.12;98887.03;4466495;32;20088;-74
2022/05/12 10:53:05;;;;;;;8.95;5.45;;;;;;;28.37;44.94;98882.38;4479596;31;20104;-74
2022/05/12 10:56:10;;;;;;;14.02;8.13;;;;;;;28.55;43.78;98886.66;4482655;31;20084;-74
2022/05/12 10:59:01;;;;;;;7.53;5.18;;;;;;;28.73;42.63;98884.72;4479400;31;20128;-74
2022/05/12 11:01:35;;;;;;;13.73;4.95;;;;;;;28.53;40.55;98877.22;4482686;31;20221;-73
2022/05/12 11:04:07;;;;;;;7.12;4.87;;;;;;;28.36;39.07;98875.41;4474872;32;20167;-74
2022/05/12 11:06:59;;;;;;;9.30;4.80;;;;;;;28.49;40.66;98874.19;4482051;32;20085;-76
2022/05/12 11:09:29;;;;;;;10.77;4.45;;;;;;;28.76;42.13;98870.75;4477059;31;20153;-74
2022/05/12 11:12:05;;;;;;;6.25;5.07;;;;;;;28.84;41.28;98857.63;4480817;32;20477;-74
2022/05/12 11:14:38;;;;;;;7.12;4.95;;;;;;;29.05;43.39;98859.69;4478651;31;20438;-74
2022/05/12 11:17:08;;;;;;;7.28;4.30;;;;;;;29.09;39.20;98858.09;4483877;31;20097;-74
2022/05/12 11:19:37;;;;;;;6.00;4.65;;;;;;;29.14;42.15;98858.13;4480191;31;20442;-74
2022/05/12 11:22:29;;;;;;;6.43;4.35;;;;;;;29.08;39.35;98859.97;4478315;32;20465;-75
2022/05/12 11:25:02;;;;;;;10.18;4.30;;;;;;;28.89;38.46;98856.03;4478935;31;20115;-74
2022/05/12 11:27:48;;;;;;;8.13;4.45;;;;;;;29.02;37.50;98850.22;4472457;31;20707;-75
2022/05/12 11:30:27;;;;;;;5.53;4.18;;;;;;;29.38;37.99;98854.03;4477766;32;20147;-75
2022/05/12 11:33:34;;;;;;;5.85;3.97;;;;;;;29.32;37.59;98851.56;4478778;32;20115;-75
2022/05/12 11:36:01;;;;;;;8.45;4.45;;;;;;;29.33;42.26;98842.41;4429078;32;20149;-74
2022/05/12 11:38:51;;;;;;;8.85;4.35;;;;;;;29.47;36.50;98838.19;4432163;32;20474;-75
2022/05/12 11:41:19;;;;;;;11.10;4.20;;;;;;;29.08;36.63;98841.09;4432155;32;20628;-75
2022/05/12 11:46:54;;;;;;;8.25;4.15;;;;;;;29.05;37.16;98843.50;4421396;32;20157;-74
2022/05/12 11:49:57;;;;;;;8.88;4.20;;;;;;;29.06;36.51;98835.16;4430450;32;20181;-75
2022/05/12 11:52:39;;;;;;;11.82;4.10;;;;;;;29.25;36.41;98838.31;4400916;32;20134;-76
2022/05/12 11:55:35;;;;;;;5.82;3.67;;;;;;;29.06;34.91;98835.16;4396354;32;20161;-75
2022/05/12 11:58:09;;;;;;;6.53;3.40;;;;;;;29.32;34.23;98832.69;4394117;32;20122;-76
2022/05/12 12:00:36;;;;;;;6.65;3.83;;;;;;;29.18;34.12;98837.69;4388015;32;20447;-76
2022/05/12 12:03:19;;;;;;;9.82;3.40;;;;;;;29.02;33.84;98842.13;4400167;32;20160;-75
2022/05/12 12:05:48;;;;;;;3.47;3.17;;;;;;;29.03;32.16;98836.47;4401441;32;20109;-75
2022/05/12 12:08:31;;;;;;;4.45;3.05;;;;;;;29.05;34.30;98844.31;4400049;32;20437;-76
2022/05/12 12:11:13;;;;;;;4.12;2.90;;;;;;;29.03;33.10;98833.78;4408037;32;20135;-76
2022/05/12 12:13:50;;;;;;;5.55;3.20;;;;;;;29.10;32.64;98836.28;4461478;32;20128;-76